createdAt,value
2023-05-03T00:00:00.681Z,8.40
2023-05-03T00:02:49.426Z,8.70
2023-05-03T00:05:39.465Z,8.23
2023-05-03T00:08:27.975Z,8.77
2023-05-03T00:11:16.548Z,8.50
2023-05-03T00:14:05.092Z,9.00
2023-05-03T00:16:53.574Z,8.57
2023-05-03T00:19:42.548Z,8.10
2023-05-03T00:22:32.638Z,9.07
2023-05-03T00:25:21.176Z,8.97
2023-05-03T00:28:09.742Z,8.67
2023-05-03T00:30:58.320Z,8.67
2023-05-03T00:33:46.833Z,8.77
2023-05-03T00:36:37.058Z,7.83
2023-05-03T00:39:27.017Z,8.70
2023-05-03T00:42:15.526Z,9.43
2023-05-03T00:45:06.121Z,9.07
2023-05-03T00:47:54.747Z,8.80
2023-05-03T00:50:43.275Z,9.10
2023-05-03T00:53:32.467Z,8.00
2023-05-03T00:56:22.891Z,8.13
2023-05-03T00:59:12.968Z,8.27
2023-05-03T01:02:01.840Z,8.87
2023-05-03T01:04:50.824Z,8.50
2023-05-03T01:07:47.308Z,8.10
2023-05-03T01:10:41.049Z,7.80
2023-05-03T01:13:39.587Z,8.20
2023-05-03T01:16:32.966Z,7.90
2023-05-03T01:19:29.923Z,8.50
2023-05-03T01:22:23.521Z,8.40
2023-05-03T01:25:15.182Z,8.20
2023-05-03T01:28:03.690Z,9.77
2023-05-03T01:30:54.202Z,8.80
2023-05-03T01:33:50.356Z,8.80
2023-05-03T01:36:40.252Z,8.37
2023-05-03T01:39:33.463Z,8.17
2023-05-03T01:42:23.937Z,9.50
2023-05-03T01:45:13.359Z,9.00
2023-05-03T01:48:01.877Z,8.13
2023-05-03T01:50:50.405Z,8.03
2023-05-03T01:53:38.860Z,7.47
2023-05-03T01:56:27.337Z,10.00
2023-05-03T01:59:17.184Z,7.80
2023-05-03T02:02:05.727Z,9.53
2023-05-03T02:04:54.411Z,7.70
2023-05-03T02:07:43.159Z,9.03
2023-05-03T02:10:31.650Z,8.33
2023-05-03T02:13:20.128Z,9.30
2023-05-03T02:16:10.460Z,9.37
2023-05-03T02:18:59.641Z,9.23
2023-05-03T02:21:48.260Z,8.30
2023-05-03T02:24:37.364Z,9.17
2023-05-03T02:27:25.940Z,9.50
2023-05-03T02:30:14.628Z,9.60
2023-05-03T02:33:04.612Z,8.63
2023-05-03T02:35:53.236Z,8.77
2023-05-03T02:38:41.767Z,9.43
2023-05-03T02:41:30.277Z,9.43
2023-05-03T02:44:18.747Z,9.07
2023-05-03T02:47:07.473Z,9.07
2023-05-03T02:49:57.370Z,9.07
2023-05-03T02:52:46.267Z,8.13
2023-05-03T02:55:35.033Z,7.97
2023-05-03T02:58:23.529Z,9.40
2023-05-03T03:01:12.184Z,9.47
2023-05-03T03:04:01.088Z,8.63
2023-05-03T03:06:53.497Z,8.90
2023-05-03T03:09:42.100Z,8.43
2023-05-03T03:12:30.751Z,8.73
2023-05-03T03:15:19.316Z,8.50
2023-05-03T03:18:07.891Z,8.27
2023-05-03T03:20:56.536Z,8.47
2023-05-03T03:23:46.398Z,9.77
2023-05-03T03:26:34.870Z,9.33
2023-05-03T03:29:23.346Z,8.60
2023-05-03T03:32:11.849Z,8.63
2023-05-03T03:35:00.660Z,8.37
2023-05-03T03:37:49.100Z,7.53
2023-05-03T03:40:39.010Z,7.93
2023-05-03T03:43:27.608Z,9.40
2023-05-03T03:46:16.188Z,8.30
2023-05-03T03:49:04.814Z,8.07
2023-05-03T03:51:53.275Z,8.50
2023-05-03T03:54:41.734Z,8.07
2023-05-03T03:57:31.574Z,9.93
2023-05-03T04:00:20.201Z,9.83
2023-05-03T04:03:08.907Z,9.53
2023-05-03T04:05:57.509Z,9.60
2023-05-03T04:08:46.045Z,9.77
2023-05-03T04:11:34.965Z,8.97
2023-05-03T04:14:24.812Z,9.20
2023-05-03T04:17:13.305Z,9.27
2023-05-03T04:20:04.230Z,10.80
2023-05-03T04:22:52.955Z,10.20
2023-05-03T04:25:48.406Z,8.80
2023-05-03T04:28:38.386Z,9.60
2023-05-03T04:31:28.324Z,9.33
2023-05-03T04:34:16.923Z,10.00
2023-05-03T04:37:06.080Z,9.03
2023-05-03T04:39:54.591Z,10.60
2023-05-03T04:42:43.718Z,10.23
2023-05-03T04:45:32.413Z,10.67
2023-05-03T04:48:22.241Z,10.00
2023-05-03T04:51:10.706Z,8.97
2023-05-03T04:53:59.599Z,9.57
2023-05-03T04:56:48.113Z,9.80
2023-05-03T04:59:36.589Z,9.03
2023-05-03T05:02:27.053Z,10.03
2023-05-03T05:05:18.241Z,11.17
2023-05-03T05:08:08.939Z,10.97
2023-05-03T05:10:57.393Z,10.17
2023-05-03T05:13:45.900Z,10.57
2023-05-03T05:16:34.614Z,9.97
2023-05-03T05:19:23.285Z,8.97
2023-05-03T05:22:13.731Z,11.40
2023-05-03T05:25:02.234Z,9.77
2023-05-03T05:27:50.696Z,10.37
2023-05-03T05:30:39.202Z,9.80
2023-05-03T05:33:27.996Z,9.90
2023-05-03T05:36:19.631Z,10.63
2023-05-03T05:39:10.125Z,10.37
2023-05-03T05:41:58.559Z,10.87
2023-05-03T05:44:47.035Z,10.90
2023-05-03T05:47:35.624Z,12.80
2023-05-03T05:50:24.233Z,10.67
2023-05-03T05:53:12.762Z,12.63
2023-05-03T05:56:02.865Z,10.70
2023-05-03T05:58:51.545Z,11.50
2023-05-03T06:01:41.667Z,10.13
2023-05-03T06:04:30.278Z,10.70
2023-05-03T06:07:18.811Z,10.20
2023-05-03T06:10:08.488Z,11.03
2023-05-03T06:12:58.492Z,10.40
2023-05-03T06:15:47.108Z,10.77
2023-05-03T06:18:35.650Z,11.27
2023-05-03T06:21:24.127Z,10.50
2023-05-03T06:24:12.905Z,10.83
2023-05-03T06:27:01.363Z,11.93
2023-05-03T06:29:51.474Z,12.03
2023-05-03T06:32:40.813Z,11.70
2023-05-03T06:35:29.405Z,12.50
2023-05-03T06:38:18.568Z,11.73
2023-05-03T06:41:07.069Z,11.00
2023-05-03T06:43:55.660Z,11.20
2023-05-03T06:46:45.648Z,11.30
2023-05-03T06:49:34.189Z,12.40
2023-05-03T06:52:22.681Z,11.20
2023-05-03T06:55:11.526Z,11.17
2023-05-03T06:58:00.561Z,10.77
2023-05-03T07:00:53.163Z,11.67
2023-05-03T07:03:43.147Z,9.77
2023-05-03T07:06:35.537Z,10.80
2023-05-03T07:09:42.813Z,10.40
2023-05-03T07:12:31.974Z,10.43
2023-05-03T07:15:20.717Z,11.47
2023-05-03T07:18:09.228Z,8.90
2023-05-03T07:21:01.655Z,10.60
2023-05-03T07:23:50.123Z,10.73
2023-05-03T07:26:38.616Z,10.30
2023-05-03T07:29:27.431Z,11.33
2023-05-03T07:32:16.680Z,10.37
2023-05-03T07:35:09.970Z,10.40
2023-05-03T07:37:59.862Z,10.83
2023-05-03T07:40:48.298Z,12.07
2023-05-03T07:43:36.841Z,9.80
2023-05-03T07:46:25.578Z,10.00
2023-05-03T07:49:14.228Z,10.50
2023-05-03T07:52:03.582Z,10.20
2023-05-03T07:54:54.141Z,10.10
2023-05-03T07:57:43.276Z,9.60
2023-05-03T08:00:31.948Z,9.30
2023-05-03T08:03:20.625Z,9.70
2023-05-03T08:06:09.341Z,10.10
2023-05-03T08:08:57.898Z,9.37
2023-05-03T08:11:47.743Z,9.70
2023-05-03T08:14:37.134Z,10.30
2023-05-03T08:17:26.300Z,9.43
2023-05-03T08:20:15.601Z,9.93
2023-05-03T08:23:04.139Z,10.57
2023-05-03T08:25:52.700Z,9.40
2023-05-03T08:28:42.929Z,10.50
2023-05-03T08:31:31.749Z,10.03
2023-05-03T08:34:20.274Z,9.10
2023-05-03T08:37:08.775Z,9.60
2023-05-03T08:39:57.293Z,9.73
2023-05-03T08:42:47.041Z,10.00
2023-05-03T08:45:37.147Z,9.40
2023-05-03T08:48:25.704Z,10.57
2023-05-03T08:51:15.058Z,9.50
2023-05-03T08:54:03.833Z,11.07
2023-05-03T08:56:52.680Z,10.50
2023-05-03T08:59:50.550Z,10.63
2023-05-03T09:02:41.167Z,9.53
2023-05-03T09:05:38.977Z,11.03
2023-05-03T09:08:28.146Z,10.63
2023-05-03T09:11:23.835Z,10.00
2023-05-03T09:14:13.913Z,10.30
2023-05-03T09:17:16.514Z,9.33
2023-05-03T09:20:09.020Z,10.57
2023-05-03T09:22:57.607Z,10.10
2023-05-03T09:25:47.392Z,9.83
2023-05-03T09:28:42.366Z,10.63
2023-05-03T09:31:32.068Z,9.50
2023-05-03T09:34:23.559Z,9.50
2023-05-03T09:37:14.772Z,10.53
2023-05-03T09:40:08.691Z,11.13
2023-05-03T09:43:09.169Z,10.33
2023-05-03T09:46:09.704Z,9.83
2023-05-03T09:48:58.315Z,9.80
2023-05-03T09:51:46.911Z,11.30
2023-05-03T09:54:36.877Z,11.30
2023-05-03T09:57:25.887Z,10.23
2023-05-03T10:00:16.857Z,10.67
2023-05-03T10:03:09.179Z,11.10
2023-05-03T10:06:00.663Z,10.90
2023-05-03T10:08:52.734Z,11.33
2023-05-03T10:11:45.596Z,10.13
2023-05-03T10:14:34.108Z,10.40
2023-05-03T10:17:39.486Z,11.17
2023-05-03T10:20:37.575Z,10.73
2023-05-03T10:23:29.169Z,11.07
2023-05-03T10:26:17.737Z,10.50
2023-05-03T10:29:08.252Z,11.10
2023-05-03T10:31:56.992Z,10.00
2023-05-03T10:34:46.445Z,9.97
2023-05-03T10:37:36.093Z,10.80
2023-05-03T10:40:25.013Z,10.50
2023-05-03T10:43:44.663Z,11.00
2023-05-03T10:46:36.442Z,9.93
2023-05-03T10:49:26.448Z,11.03
2023-05-03T10:52:49.692Z,9.80
2023-05-03T10:55:38.586Z,10.50
2023-05-03T10:58:27.083Z,9.93
2023-05-03T11:01:17.301Z,9.20
2023-05-03T11:04:09.441Z,9.63
2023-05-03T11:06:58.974Z,9.27
2023-05-03T11:09:47.921Z,9.67
2023-05-03T11:12:36.545Z,9.80
2023-05-03T11:15:25.062Z,9.20
2023-05-03T11:18:13.655Z,9.90
2023-05-03T11:21:03.806Z,9.53
2023-05-03T11:23:52.320Z,10.90
2023-05-03T11:26:40.984Z,8.73
2023-05-03T11:29:29.565Z,9.97
2023-05-03T11:32:19.363Z,10.00
2023-05-03T11:35:08.437Z,9.53
2023-05-03T11:37:58.486Z,9.70
2023-05-03T11:40:47.057Z,8.60
2023-05-03T11:43:36.914Z,9.70
2023-05-03T11:46:28.684Z,8.80
2023-05-03T11:49:19.746Z,8.60
2023-05-03T11:52:08.965Z,8.60
2023-05-03T11:54:58.902Z,8.57
2023-05-03T11:57:47.426Z,8.40
2023-05-03T12:00:37.770Z,7.73
2023-05-03T12:03:31.213Z,8.40
2023-05-03T12:06:21.790Z,8.00
2023-05-03T12:09:16.793Z,8.50
2023-05-03T12:12:10.704Z,9.20
2023-05-03T12:15:03.830Z,8.60
2023-05-03T12:17:59.947Z,8.33
2023-05-03T12:21:30.195Z,8.30
2023-05-03T12:24:06.609Z,7.40
2023-05-03T12:26:57.309Z,7.83
2023-05-03T12:29:47.819Z,7.47
2023-05-03T12:32:38.887Z,8.17
2023-05-03T12:35:28.382Z,8.70
2023-05-03T12:38:18.024Z,7.40
2023-05-03T12:41:09.198Z,6.80
2023-05-03T12:44:03.012Z,7.80
2023-05-03T12:46:53.609Z,6.57
2023-05-03T12:49:45.916Z,7.33
2023-05-03T12:52:38.189Z,6.50
2023-05-03T12:55:27.742Z,7.40
2023-05-03T13:01:46.910Z,6.63
2023-05-03T13:04:56.098Z,6.90
2023-05-03T13:07:32.708Z,7.10
2023-05-03T13:10:29.632Z,7.20
2023-05-03T13:13:18.411Z,6.80
2023-05-03T13:16:08.047Z,7.07
2023-05-03T13:18:56.647Z,7.43
2023-05-03T13:21:48.105Z,6.30
2023-05-03T13:24:36.788Z,6.40
2023-05-03T13:27:25.348Z,5.93
2023-05-03T13:30:14.489Z,6.50
2023-05-03T13:33:03.058Z,6.67
2023-05-03T13:35:51.562Z,6.57
2023-05-03T13:38:41.892Z,6.93
2023-05-03T13:41:30.526Z,7.23
2023-05-03T13:44:19.308Z,6.97
2023-05-03T13:47:07.820Z,6.17
2023-05-03T13:49:57.200Z,7.10
2023-05-03T13:52:45.950Z,7.37
2023-05-03T13:55:35.879Z,6.80
2023-05-03T13:58:24.393Z,7.40
2023-05-03T14:01:13.715Z,6.30
2023-05-03T14:04:02.382Z,8.57
2023-05-03T14:06:50.947Z,7.00
2023-05-03T14:09:39.641Z,7.40
2023-05-03T14:12:29.601Z,6.27
2023-05-03T14:15:18.943Z,6.23
2023-05-03T14:18:07.929Z,5.20
2023-05-03T14:20:57.083Z,5.30
2023-05-03T14:23:46.030Z,8.60
2023-05-03T14:26:34.862Z,9.10
2023-05-03T14:29:24.692Z,5.80
2023-05-03T14:32:13.481Z,6.40
2023-05-03T14:35:01.969Z,5.77
2023-05-03T14:37:50.765Z,5.90
2023-05-03T14:40:39.350Z,4.77
2023-05-03T14:43:28.396Z,5.67
2023-05-03T14:46:18.253Z,5.90
2023-05-03T14:49:07.083Z,5.07
2023-05-03T14:51:55.685Z,5.10
2023-05-03T14:54:44.524Z,5.63
2023-05-03T14:57:33.794Z,5.20
2023-05-03T15:00:22.420Z,5.10
2023-05-03T15:03:13.063Z,5.50
2023-05-03T15:06:01.605Z,5.40
2023-05-03T15:08:51.369Z,4.80
2023-05-03T15:11:40.020Z,5.20
2023-05-03T15:14:28.816Z,4.83
2023-05-03T15:17:17.527Z,5.67
2023-05-03T15:20:10.295Z,6.03
2023-05-03T15:22:58.811Z,6.00
2023-05-03T15:25:47.329Z,5.23
2023-05-03T15:28:35.793Z,5.07
2023-05-03T15:31:24.507Z,5.00
2023-05-03T15:34:13.077Z,5.93
2023-05-03T15:37:03.059Z,5.00
2023-05-03T15:39:51.707Z,5.33
2023-05-03T15:42:40.615Z,4.90
2023-05-03T15:45:29.147Z,5.70
2023-05-03T15:48:17.696Z,5.27
2023-05-03T15:51:06.564Z,4.83
2023-05-03T15:53:56.517Z,5.03
2023-05-03T15:56:45.309Z,5.77
2023-05-03T15:59:33.863Z,4.73
2023-05-03T16:02:22.529Z,4.97
2023-05-03T16:05:12.525Z,4.80
2023-05-03T16:08:01.147Z,4.43
2023-05-03T16:10:51.363Z,5.10
2023-05-03T16:13:39.965Z,5.03
2023-05-03T16:16:28.570Z,4.63
2023-05-03T16:19:17.084Z,5.50
2023-05-03T16:22:05.917Z,4.90
2023-05-03T16:24:54.461Z,4.23
2023-05-03T16:27:44.492Z,5.63
2023-05-03T16:30:33.653Z,5.17
2023-05-03T16:33:22.187Z,5.00
2023-05-03T16:36:11.291Z,4.33
2023-05-03T16:39:00.094Z,4.20
2023-05-03T16:41:48.614Z,4.20
2023-05-03T16:44:38.711Z,3.90
2023-05-03T16:47:27.311Z,4.30
2023-05-03T16:50:17.525Z,3.93
2023-05-03T16:53:06.095Z,4.20
2023-05-03T16:55:55.309Z,3.77
2023-05-03T16:58:44.531Z,3.97
2023-05-03T17:01:34.473Z,4.17
2023-05-03T17:04:23.462Z,3.60
2023-05-03T17:07:12.000Z,4.50
2023-05-03T17:10:01.107Z,4.63
2023-05-03T17:12:49.699Z,3.57
2023-05-03T17:15:38.416Z,3.80
2023-05-03T17:18:28.726Z,3.83
2023-05-03T17:21:19.087Z,3.90
2023-05-03T17:24:08.527Z,4.00
2023-05-03T17:26:57.049Z,3.53
2023-05-03T17:29:45.531Z,3.93
2023-05-03T17:32:34.431Z,3.87
2023-05-03T17:35:24.304Z,3.67
2023-05-03T17:38:12.844Z,3.70
2023-05-03T17:41:04.877Z,4.10
2023-05-03T17:43:53.671Z,3.50
2023-05-03T17:46:42.999Z,3.73
2023-05-03T17:49:33.515Z,4.00
2023-05-03T17:52:23.348Z,3.27
2023-05-03T17:55:12.234Z,3.40
2023-05-03T17:58:00.788Z,3.50
2023-05-03T18:00:49.357Z,3.83
2023-05-03T18:03:38.376Z,3.90
2023-05-03T18:06:28.034Z,3.40
2023-05-03T18:09:18.115Z,3.00
2023-05-03T18:12:07.286Z,3.30
2023-05-03T18:14:59.458Z,2.97
2023-05-03T18:17:48.381Z,3.53
2023-05-03T18:20:37.105Z,3.10
2023-05-03T18:23:25.594Z,3.70
2023-05-03T18:26:15.389Z,3.20
2023-05-03T18:29:04.033Z,3.47
2023-05-03T18:31:54.676Z,3.60
2023-05-03T18:34:43.559Z,3.50
2023-05-03T18:37:32.075Z,3.00
2023-05-03T18:40:20.734Z,3.60
2023-05-03T18:43:10.655Z,3.47
2023-05-03T18:45:59.270Z,3.47
2023-05-03T18:48:48.218Z,3.43
2023-05-03T18:51:37.086Z,3.23
2023-05-03T18:54:25.632Z,3.17
2023-05-03T18:57:14.223Z,3.40
2023-05-03T19:00:06.359Z,3.33
2023-05-03T19:02:54.904Z,3.30
2023-05-03T19:05:43.558Z,3.20
2023-05-03T19:08:32.135Z,3.10
2023-05-03T19:11:20.707Z,3.30
2023-05-03T19:14:09.367Z,2.90
2023-05-03T19:16:59.624Z,4.20
2023-05-03T19:19:48.446Z,2.70
2023-05-03T19:22:37.215Z,3.47
2023-05-03T19:25:25.771Z,2.97
2023-05-03T19:28:14.264Z,3.43
2023-05-03T19:31:04.259Z,3.77
2023-05-03T19:33:54.435Z,3.50
2023-05-03T19:36:42.924Z,3.20
2023-05-03T19:39:35.475Z,3.47
2023-05-03T19:42:23.984Z,3.40
2023-05-03T19:45:13.339Z,3.10
2023-05-03T19:48:01.943Z,3.63
2023-05-03T19:50:51.871Z,3.77
2023-05-03T19:53:40.343Z,4.17
2023-05-03T19:56:29.138Z,3.60
2023-05-03T19:59:18.107Z,3.43
2023-05-03T20:02:07.497Z,3.50
2023-05-03T20:04:56.330Z,3.63
2023-05-03T20:07:47.064Z,3.90
2023-05-03T20:10:37.059Z,3.90
2023-05-03T20:13:27.577Z,3.40
2023-05-03T20:16:16.996Z,4.03
2023-05-03T20:19:06.970Z,4.63
2023-05-03T20:21:55.505Z,4.00
2023-05-03T20:24:45.784Z,3.93
2023-05-03T20:27:34.292Z,3.33
2023-05-03T20:30:23.222Z,3.63
2023-05-03T20:33:12.375Z,3.90
2023-05-03T20:36:00.932Z,4.67
2023-05-03T20:38:49.647Z,4.33
2023-05-03T20:41:39.472Z,4.27
2023-05-03T20:44:28.525Z,4.30
2023-05-03T20:47:17.081Z,4.40
2023-05-03T20:50:06.969Z,5.03
2023-05-03T20:52:56.312Z,4.60
2023-05-03T20:55:45.054Z,5.07
2023-05-03T20:58:35.159Z,4.40
2023-05-03T21:01:23.718Z,4.47
2023-05-03T21:04:12.177Z,3.77
2023-05-03T21:07:00.630Z,3.60
2023-05-03T21:09:49.343Z,4.53
2023-05-03T21:12:37.908Z,4.27
2023-05-03T21:15:29.696Z,4.40
2023-05-03T21:18:19.061Z,4.73
2023-05-03T21:21:07.858Z,4.23
2023-05-03T21:23:56.305Z,3.90
2023-05-03T21:26:44.796Z,3.97
2023-05-03T21:29:33.454Z,4.07
2023-05-03T21:32:23.295Z,3.67
2023-05-03T21:35:12.000Z,3.90
2023-05-03T21:38:00.523Z,3.60
2023-05-03T21:40:48.960Z,4.50
2023-05-03T21:43:37.550Z,4.40
2023-05-03T21:46:26.077Z,4.20
2023-05-03T21:49:16.093Z,4.07
2023-05-03T21:52:04.922Z,4.47
2023-05-03T21:54:53.449Z,4.60
2023-05-03T21:57:41.915Z,3.87
2023-05-03T22:00:31.670Z,4.23
2023-05-03T22:03:20.259Z,4.20
2023-05-03T22:06:10.813Z,5.00
2023-05-03T22:08:59.721Z,5.40
2023-05-03T22:11:48.439Z,5.37
2023-05-03T22:14:36.909Z,4.70
2023-05-03T22:17:25.997Z,4.83
2023-05-03T22:20:14.768Z,4.97
2023-05-03T22:23:04.674Z,5.20
2023-05-03T22:25:53.245Z,5.47
2023-05-03T22:28:41.746Z,5.53
2023-05-03T22:31:31.137Z,5.50
2023-05-03T22:34:19.702Z,5.30
2023-05-03T22:37:08.179Z,5.10
2023-05-03T22:39:58.052Z,5.87
2023-05-03T22:42:46.749Z,5.90
2023-05-03T22:45:35.328Z,5.53
2023-05-03T22:48:29.547Z,5.73
2023-05-03T22:51:18.015Z,5.80
2023-05-03T22:54:06.616Z,6.03
2023-05-03T22:56:58.486Z,5.70
2023-05-03T22:59:47.011Z,6.10
2023-05-03T23:02:35.804Z,5.70
2023-05-03T23:05:24.298Z,5.50
2023-05-03T23:08:13.741Z,6.23
2023-05-03T23:11:02.229Z,5.70
2023-05-03T23:13:52.277Z,6.00
2023-05-03T23:16:40.824Z,5.40
2023-05-03T23:19:29.297Z,5.80
2023-05-03T23:22:18.051Z,5.40
2023-05-03T23:25:06.935Z,5.63
2023-05-03T23:27:55.438Z,5.97
2023-05-03T23:30:46.223Z,5.70
2023-05-03T23:33:35.320Z,5.60
2023-05-03T23:36:23.859Z,5.60
2023-05-03T23:39:12.640Z,5.63
2023-05-03T23:42:01.116Z,5.30
2023-05-03T23:44:55.423Z,5.23
2023-05-03T23:47:45.993Z,5.37
2023-05-03T23:50:34.437Z,5.77
2023-05-03T23:53:22.862Z,6.07
2023-05-03T23:56:11.676Z,5.03
2023-05-03T23:59:01.427Z,5.60
